Tropical Cyclones
[Index]
Main Index Home Page Stock Weather Photos Extreme Storms Discussion Storm News and Storm Chasing Reports Tropical Cyclones / Hurricanes / Typhoons Weather Data and Links Wild Fires / Bushfires Weather Observation Techniques Weather Picture Catalogue Tornado Pictures and Reports Stock Video Footage and DVDs for sale
Season 2019-2020 Tropical Cyclone TINO Track Map
Season 2019-2020 Summaries (Operational Data): [AU] [SIO] [SPAC] [SH]
<<- Previous TC | 2019-2020 Season | Next TC ->>

click for intensity scale information  Lat/long Grid: Show Hide

 Date Labels: Show Hide

Operational Tropical Cyclone Data

Name: TINO
Number: 2008

11 Jan 2020 06:00 UTC to 22 Jan 2020 00:00 UTC

    date/time    lat    long     hPa   cat  kts
2020-01-11 06   10.7   159.7    1010         15          
2020-01-11 12   11.2   160.5    1010         15          
2020-01-11 18   11.6   161.6    1010         15          
2020-01-12 00   12.0   162.5    1003         15          
2020-01-12 06   12.3   162.8    1000         15          
2020-01-12 12   12.6   163.1    1001         15          
2020-01-12 18   12.8   163.5    1001         15          
2020-01-13 00   12.8   164.0    1010         15          
2020-01-13 06   12.7   164.6    1000         15          
2020-01-13 12   12.5   165.2    1010         15          
2020-01-13 18   12.8   166.4    1000         15          
2020-01-14 00   12.6   167.2    1006         15          
2020-01-14 06   12.4   168.2    1004         20          
2020-01-14 12   12.4   169.2    1004         20          
2020-01-14 18   12.5   169.9     997         20          
2020-01-15 00   11.3   169.9     998         20          
2020-01-15 06   11.5   171.2     997         20          
2020-01-15 12   11.3   171.9     995         25          
2020-01-15 18   11.2   172.9     993         30          
2020-01-16 00   11.3   174.1     992         30          
2020-01-16 06   11.9   175.5     992         30          
2020-01-16 12   12.7   176.8     990    1    35          
2020-01-16 18   13.7   177.8     983    1    40          
2020-01-17 00   14.8   178.7     982    1    45          
2020-01-17 06   15.3   179.9     972    2    60          
2020-01-17 12   16.0   178.0W    970    3    65          
2020-01-17 18   17.9   177.4W    966    3    70          
2020-01-18 00   19.1   176.3W    967    3    70          
2020-01-18 06   20.1   175.0W    968    3    70          
2020-01-18 12   21.4   173.1W    971    3    65          
2020-01-18 18   23.0   171.5W    968    2    60          
2020-01-19 00   25.1   169.6W    968    2    55          
2020-01-19 06   27.7   167.3W    964    2    55          
2020-01-19 12   30.2   165.1W    985    2    50          
2020-01-19 18   33.6   165.8W                            
2020-01-20 00   35.1   164.8W                            
2020-01-20 06   35.2   165.6W                            
2020-01-20 12   34.9   164.8W                            
2020-01-20 18   35.3   162.7W                            
2020-01-21 00   36.8   159.6W                            
2020-01-21 06   37.8   157.6W                            
2020-01-21 12   39.7   154.7W                            
2020-01-21 18   40.6   152.2W                            
2020-01-22 00   41.3   149.1W                            
Winds are 10-min average.

Tropical cyclone tracks developed by Michael Bath using operational warnings and advisories and Google Maps.


[Australian Severe Weather index] [Copyright Notice] [Email Contacts] [Search This Site] [Privacy Policy]
Document: tropical_cyclone_tino.htm Updated: 11 March 2020